createdAt,value
2023-04-09T00:04:36.394Z,3.80
2023-04-09T00:09:45.479Z,3.81
2023-04-09T00:14:54.067Z,3.81
2023-04-09T00:20:01.656Z,3.74
2023-04-09T00:25:13.858Z,3.68
2023-04-09T00:30:22.846Z,3.58
2023-04-09T00:35:30.930Z,3.42
2023-04-09T00:40:38.563Z,3.38
2023-04-09T00:45:47.312Z,3.46
2023-04-09T00:50:55.174Z,3.49
2023-04-09T00:56:02.911Z,3.51
2023-04-09T01:01:10.921Z,3.46
2023-04-09T01:06:25.339Z,3.43
2023-04-09T01:11:40.412Z,3.45
2023-04-09T01:16:54.134Z,3.40
2023-04-09T01:22:10.919Z,3.39
2023-04-09T01:27:19.111Z,3.28
2023-04-09T01:32:28.162Z,3.24
2023-04-09T01:37:37.189Z,3.29
2023-04-09T01:42:45.415Z,3.37
2023-04-09T01:47:54.334Z,3.43
2023-04-09T01:53:05.354Z,3.47
2023-04-09T01:58:13.421Z,3.50
2023-04-09T02:03:25.781Z,3.50
2023-04-09T02:08:36.808Z,3.47
2023-04-09T02:13:46.039Z,3.47
2023-04-09T02:18:57.156Z,3.44
2023-04-09T02:24:04.904Z,3.38
2023-04-09T02:29:12.359Z,3.39
2023-04-09T02:34:20.175Z,3.42
2023-04-09T02:39:27.422Z,3.45
2023-04-09T02:44:33.150Z,3.50
2023-04-09T02:49:41.303Z,3.52
2023-04-09T02:54:48.648Z,3.51
2023-04-09T02:59:57.587Z,3.51
2023-04-09T03:05:05.887Z,3.49
2023-04-09T03:10:14.013Z,3.47
2023-04-09T03:15:21.757Z,3.50
2023-04-09T03:20:29.530Z,3.57
2023-04-09T03:25:37.492Z,3.57
2023-04-09T03:30:45.014Z,3.59
2023-04-09T03:35:52.829Z,3.63
2023-04-09T03:41:00.801Z,3.62
2023-04-09T03:46:16.120Z,3.56
2023-04-09T03:51:23.578Z,3.54
2023-04-09T03:56:31.155Z,3.51
2023-04-09T04:01:38.740Z,3.46
2023-04-09T04:06:46.576Z,3.46
2023-04-09T04:11:54.025Z,3.39
2023-04-09T04:17:01.426Z,3.39
2023-04-09T04:22:09.085Z,3.42
2023-04-09T04:27:16.691Z,3.49
2023-04-09T04:32:24.157Z,3.54
2023-04-09T04:37:31.652Z,3.57
2023-04-09T04:42:39.415Z,3.61
2023-04-09T04:52:57.934Z,3.66
2023-04-09T04:58:02.007Z,3.66
2023-04-09T05:03:06.278Z,3.72
2023-04-09T05:08:10.603Z,3.79
2023-04-09T05:13:14.749Z,3.78
2023-04-09T05:18:19.073Z,3.78
2023-04-09T05:23:23.823Z,3.81
2023-04-09T05:28:28.558Z,3.87
2023-04-09T05:33:37.763Z,3.95
2023-04-09T05:38:42.565Z,4.05
2023-04-09T05:43:47.127Z,4.11
2023-04-09T05:48:53.300Z,4.15
2023-04-09T05:53:58.981Z,4.20
2023-04-09T05:59:04.228Z,4.38
2023-04-09T06:04:10.118Z,4.53
2023-04-09T06:09:14.635Z,4.63
2023-04-09T06:14:18.759Z,4.69
2023-04-09T06:19:23.855Z,4.75
2023-04-09T06:24:28.595Z,4.86
2023-04-09T06:29:33.457Z,4.93
2023-04-09T06:34:38.452Z,4.98
2023-04-09T06:39:47.716Z,5.07
2023-04-09T06:45:02.413Z,5.11
2023-04-09T06:50:09.025Z,5.15
2023-04-09T06:55:13.607Z,5.23
2023-04-09T07:00:18.055Z,5.28
2023-04-09T07:05:22.172Z,5.36
2023-04-09T07:10:26.713Z,5.53
2023-04-09T07:15:32.353Z,5.73
2023-04-09T07:20:37.110Z,5.87
2023-04-09T07:25:40.962Z,6.12
2023-04-09T07:30:46.718Z,6.45
2023-04-09T07:35:50.842Z,6.77
2023-04-09T07:40:54.783Z,7.17
2023-04-09T07:45:58.721Z,7.57
2023-04-09T07:51:03.128Z,7.92
2023-04-09T07:56:08.813Z,8.23
2023-04-09T08:01:14.287Z,8.53
2023-04-09T08:06:18.088Z,8.85
2023-04-09T08:11:25.555Z,9.06
2023-04-09T08:16:32.898Z,9.02
2023-04-09T08:21:42.690Z,9.03
2023-04-09T08:26:47.145Z,9.24
2023-04-09T08:31:52.015Z,9.46
2023-04-09T08:36:57.234Z,9.56
2023-04-09T08:42:06.749Z,9.59
2023-04-09T08:47:12.206Z,9.56
2023-04-09T08:52:18.690Z,9.46
2023-04-09T08:57:24.316Z,9.39
2023-04-09T09:02:31.058Z,9.35
2023-04-09T09:07:36.111Z,9.45
2023-04-09T09:12:42.523Z,9.60
2023-04-09T09:17:56.137Z,9.75
2023-04-09T09:23:01.128Z,9.81
2023-04-09T09:28:09.658Z,9.87
2023-04-09T09:33:14.002Z,9.88
2023-04-09T09:38:18.255Z,9.78
2023-04-09T09:43:22.405Z,9.68
2023-04-09T09:48:28.345Z,9.66
2023-04-09T09:53:36.580Z,9.66
2023-04-09T09:58:45.842Z,9.65
2023-04-09T10:03:52.122Z,9.65
2023-04-09T10:08:59.590Z,9.63
2023-04-09T10:14:04.805Z,9.69
2023-04-09T10:19:13.881Z,9.80
2023-04-09T10:24:18.415Z,9.91
2023-04-09T10:29:28.881Z,10.09
2023-04-09T10:34:38.821Z,10.28
2023-04-09T10:39:46.895Z,10.42
2023-04-09T10:45:06.461Z,10.45
2023-04-09T10:50:18.181Z,10.50
2023-04-09T10:55:36.481Z,10.49
2023-04-09T11:00:45.440Z,10.44
2023-04-09T11:05:54.438Z,10.45
2023-04-09T11:10:58.985Z,10.50
2023-04-09T11:16:06.165Z,10.58
2023-04-09T11:21:13.039Z,10.66
2023-04-09T11:26:16.033Z,10.73
2023-04-09T11:31:26.624Z,10.77
2023-04-09T11:36:31.822Z,10.81
2023-04-09T11:41:36.457Z,10.84
2023-04-09T11:52:52.551Z,11.06
2023-04-09T11:58:00.515Z,11.10
2023-04-09T12:03:06.948Z,11.10
2023-04-09T12:08:11.570Z,11.08
2023-04-09T12:13:16.306Z,11.15
2023-04-09T12:18:23.306Z,11.27
2023-04-09T12:23:27.300Z,11.41
2023-04-09T12:28:31.761Z,11.56
2023-04-09T12:33:38.857Z,11.72
2023-04-09T12:38:43.427Z,11.83
2023-04-09T12:43:47.696Z,11.85
2023-04-09T12:48:51.631Z,11.94
2023-04-09T12:53:55.865Z,12.01
2023-04-09T12:59:01.319Z,12.06
2023-04-09T13:04:05.919Z,12.05
2023-04-09T13:09:10.048Z,12.01
2023-04-09T13:14:14.233Z,11.90
2023-04-09T13:19:18.769Z,11.81
2023-04-09T13:24:22.745Z,11.75
2023-04-09T13:29:28.818Z,11.72
2023-04-09T13:34:33.095Z,11.66
2023-04-09T13:39:37.796Z,11.56
2023-04-09T13:44:44.739Z,11.51
2023-04-09T13:49:50.967Z,11.49
2023-04-09T13:54:55.103Z,11.50
2023-04-09T14:00:01.602Z,11.52
2023-04-09T14:05:07.592Z,11.54
2023-04-09T14:10:12.444Z,11.53
2023-04-09T14:15:16.539Z,11.51
2023-04-09T14:20:20.681Z,11.51
2023-04-09T14:25:24.512Z,11.49
2023-04-09T14:30:28.414Z,11.45
2023-04-09T14:35:32.454Z,11.41
2023-04-09T14:40:37.883Z,11.38
2023-04-09T14:45:41.717Z,11.35
2023-04-09T14:54:38.217Z,11.37
2023-04-09T14:59:45.964Z,11.36
2023-04-09T15:04:53.430Z,11.34
2023-04-09T15:10:01.429Z,11.32
2023-04-09T15:15:11.481Z,11.31
2023-04-09T15:20:19.414Z,11.30
2023-04-09T15:25:27.007Z,11.30
2023-04-09T15:30:35.620Z,11.24
2023-04-09T15:35:43.238Z,11.19
2023-04-09T15:40:51.971Z,11.15
2023-04-09T15:45:59.726Z,11.10
2023-04-09T15:51:08.278Z,11.08
2023-04-09T15:56:16.776Z,11.08
2023-04-09T16:01:24.470Z,11.06
2023-04-09T16:06:32.029Z,11.03
2023-04-09T16:11:40.925Z,10.99
2023-04-09T16:16:50.386Z,10.94
2023-04-09T16:21:57.837Z,10.86
2023-04-09T16:27:05.570Z,10.80
2023-04-09T16:32:13.462Z,10.72
2023-04-09T16:37:21.265Z,10.63
2023-04-09T16:42:30.707Z,10.56
2023-04-09T16:47:38.650Z,10.49
2023-04-09T16:52:46.844Z,10.41
2023-04-09T16:57:56.181Z,10.33
2023-04-09T17:03:03.931Z,10.25
2023-04-09T17:08:11.942Z,10.18
2023-04-09T17:13:19.900Z,10.12
2023-04-09T17:18:27.521Z,10.08
2023-04-09T17:23:35.338Z,10.04
2023-04-09T17:28:43.395Z,9.98
2023-04-09T17:33:51.403Z,9.94
2023-04-09T17:38:59.348Z,9.91
2023-04-09T17:44:07.405Z,9.87
2023-04-09T17:49:15.215Z,9.83
2023-04-09T17:54:22.944Z,9.79
2023-04-09T17:59:31.043Z,9.80
2023-04-09T18:04:38.607Z,9.82
2023-04-09T18:09:46.577Z,9.82
2023-04-09T18:14:54.600Z,9.80
2023-04-09T18:20:02.467Z,9.74
2023-04-09T18:25:11.873Z,9.62
2023-04-09T18:30:19.882Z,9.46
2023-04-09T18:35:27.732Z,9.35
2023-04-09T18:40:41.239Z,9.29
2023-04-09T18:45:50.116Z,9.25
2023-04-09T18:50:57.757Z,9.23
2023-04-09T18:56:05.332Z,9.21
2023-04-09T19:01:17.725Z,9.09
2023-04-09T19:06:25.845Z,8.96
2023-04-09T19:11:33.548Z,8.86
2023-04-09T19:16:41.204Z,8.66
2023-04-09T19:21:48.791Z,8.48
2023-04-09T19:26:56.872Z,8.38
2023-04-09T19:32:04.165Z,8.30
2023-04-09T19:37:12.098Z,8.28
2023-04-09T19:42:19.730Z,8.29
2023-04-09T19:47:27.610Z,8.29
2023-04-09T19:52:35.280Z,8.26
2023-04-09T19:57:44.261Z,8.26
2023-04-09T20:02:52.734Z,8.25
2023-04-09T20:08:00.935Z,8.24
2023-04-09T20:13:09.191Z,8.21
2023-04-09T20:18:16.930Z,8.19
2023-04-09T20:23:24.607Z,8.17
2023-04-09T20:28:32.352Z,8.11
2023-04-09T20:33:40.179Z,8.05
2023-04-09T20:38:49.575Z,7.91
2023-04-09T20:43:57.218Z,7.85
2023-04-09T20:49:05.781Z,7.72
2023-04-09T20:54:14.331Z,7.51
2023-04-09T20:59:23.755Z,7.41
2023-04-09T21:04:31.566Z,7.31
2023-04-09T21:09:39.316Z,7.14
2023-04-09T21:14:48.099Z,7.02
2023-04-09T21:19:56.962Z,6.99
2023-04-09T21:25:05.438Z,6.92
2023-04-09T21:30:13.893Z,6.85
2023-04-09T21:35:21.793Z,6.75
2023-04-09T21:40:29.514Z,6.65
2023-04-09T21:45:37.279Z,6.55
2023-04-09T21:54:39.781Z,6.45
2023-04-09T21:59:46.984Z,6.37
2023-04-09T22:04:54.520Z,6.37
2023-04-09T22:10:01.704Z,6.35
2023-04-09T22:15:08.737Z,6.29
2023-04-09T22:20:16.229Z,6.24
2023-04-09T22:25:23.980Z,6.18
2023-04-09T22:30:31.590Z,6.16
2023-04-09T22:35:39.125Z,6.11
2023-04-09T22:40:48.982Z,6.06
2023-04-09T22:45:57.519Z,6.02
2023-04-09T22:51:05.163Z,6.05
2023-04-09T22:56:13.037Z,6.04
2023-04-09T23:04:40.205Z,6.13
2023-04-09T23:09:45.874Z,6.11
2023-04-09T23:14:51.329Z,6.05
2023-04-09T23:19:55.572Z,5.99
2023-04-09T23:24:59.907Z,5.96
2023-04-09T23:30:05.622Z,5.98
2023-04-09T23:35:11.041Z,6.04
2023-04-09T23:40:17.500Z,6.08
2023-04-09T23:45:23.169Z,6.13
2023-04-09T23:50:28.454Z,6.18
2023-04-09T23:55:33.658Z,6.23
